Peotone Weather

Nearby METAR Reports

 

KIGQ - Lansing, Illinois, USA
Distance from station: NE 19mi, 30km
Updated: Sun, 21-Jul-2019 4:35am CDT
Partly cloudy
Partly cloudy
 Wind from calm
Wind: Calm
Temperature: 72°F , 22°C
Dew Point: 72°F , 22°C
Humidity: 100%
Barometer: 29.90 inHg , 1012.5 hPa
Clouds: Partly cloudy
Visibility: 10 miles , 16 km
Cloud details: Partly cloudy 600 ft
Partly cloudy 3900 ft
2019/07/21 09:35 KIGQ 210935Z AUTO 00000KT 10SM SCT006 SCT039 22/22 A2990 RMK AO2 LTG DSNT N AND NE T02150215
KIKK - Kankakee, Illinois, USA
Distance from station: S 19mi, 30km
Updated: Sun, 21-Jul-2019 4:15am CDT
Mostly cloudy
Mostly cloudy
 Wind from calm
Wind: Calm
Temperature: 77°F , 25°C
Dew Point: 73°F , 23°C
Humidity: 89%
Barometer: 29.88 inHg , 1011.9 hPa
Clouds: Mostly cloudy
Visibility: 10 miles , 16 km
Cloud details: Partly cloudy 4200 ft
Mostly cloudy 5000 ft
Mostly cloudy 6000 ft
2019/07/21 09:15 KIKK 210915Z AUTO 00000KT 10SM SCT042 BKN050 BKN060 25/23 A2988 RMK AO2 LTG DSNT N T02500230
 
KSJC - Joliet, Illinois, USA
Distance from station: WNW 24mi, 38km
Updated: Sun, 21-Jul-2019 3:53am CDT
NOT Current
Partly cloudy
Partly cloudy
 Wind from calm
Wind: Calm
Temperature: 61°F , 16°C
Dew Point: 61°F , 16°C
Humidity: 100%
Barometer: 29.91 inHg , 1012.9 hPa
Clouds: Partly cloudy
Visibility: 10 miles , 16 km
Cloud details: Partly cloudy 1500 ft
2019/07/21 08:53 KSJC 210853Z AUTO 00000KT 10SM SCT015 16/16 A2991 RMK AO2 SLP128 T01610161 50001
KLOT - Romeoville, Illinois, USA
Distance from station: NW 26mi, 41km
Updated: Sun, 21-Jul-2019 4:10am CDT
Partly cloudy
Partly cloudy
 Wind from ENE
Wind: ENE 8 mph , 13 km/h
Temperature: 72°F , 22°C
Dew Point: 68°F , 20°C
Humidity: 88%
Barometer: 29.90 inHg , 1012.5 hPa
Clouds: Partly cloudy
Visibility: 10 miles , 16 km
Cloud details: Partly cloudy 4100 ft
2019/07/21 09:10 KLOT 210910Z AUTO 06007KT 10SM SCT041 22/20 A2990 RMK AO2 LTG DSNT NW THRU NE T02220200
 
KMDW - Midway Airport Chicago, Illinois, USA
Distance from station: N 31mi, 50km
Updated: Sun, 21-Jul-2019 3:53am CDT
NOT Current
Mostly cloudy
Mostly cloudy
 Wind from NNE
Wind: NNE 10 mph , 17 km/h
Temperature: 73°F , 23°C
Dew Point: 70°F , 21°C
Humidity: 89%
Barometer: 29.90 inHg , 1012.5 hPa
Clouds: Mostly cloudy
Visibility: 10 miles , 16 km
Cloud details: Partly cloudy 3800 ft
Partly cloudy 5500 ft
Partly cloudy 10000 ft
Mostly cloudy 20000 ft
2019/07/21 08:53 KMDW 210853Z 03009KT 10SM SCT038 SCT055 SCT100 BKN200 23/21 A2990 RMK AO2 LTG DSNT N SLP110 OCNL LTGIC DSNT N CB DSNT N T02280206 51002
KC09 - Morris, Illinois, USA
Distance from station: W 34mi, 54km
Updated: Sun, 21-Jul-2019 4:15am CDT
Partly cloudy
Partly cloudy
 Wind from ENE
Wind: ENE 6 mph , 9 km/h
Temperature: 75°F , 24°C
Dew Point: 72°F , 22°C
Humidity: 89%
Barometer: 29.88 inHg , 1011.9 hPa
Clouds: Partly cloudy
Visibility: 10 miles , 16 km
Cloud details: Partly cloudy 4300 ft
2019/07/21 09:15 KC09 210915Z AUTO 06005KT 10SM SCT043 24/22 A2988 RMK AO2 LTG DSNT N T02370223

Metar display script from Saratoga-Weather.org